sensor_id;sensor_type;location;lat;lon;timestamp;temperature;humidity
16154;DHT22;8182;55.648;13.208;2023-06-14T00:02:34;13.70;99.90
16154;DHT22;8182;55.648;13.208;2023-06-14T00:05:01;13.70;99.90
16154;DHT22;8182;55.648;13.208;2023-06-14T00:07:36;13.70;99.90
16154;DHT22;8182;55.648;13.208;2023-06-14T00:10:05;13.70;99.90
16154;DHT22;8182;55.648;13.208;2023-06-14T00:12:33;13.60;99.90
16154;DHT22;8182;55.648;13.208;2023-06-14T00:15:05;13.50;99.90
16154;DHT22;8182;55.648;13.208;2023-06-14T00:17:35;13.50;99.90
16154;DHT22;8182;55.648;13.208;2023-06-14T00:20:05;13.50;99.90
16154;DHT22;8182;55.648;13.208;2023-06-14T00:22:34;13.30;99.90
16154;DHT22;8182;55.648;13.208;2023-06-14T00:25:02;13.30;99.90
16154;DHT22;8182;55.648;13.208;2023-06-14T00:27:29;13.20;99.90
16154;DHT22;8182;55.648;13.208;2023-06-14T00:29:56;13.10;99.90
16154;DHT22;8182;55.648;13.208;2023-06-14T00:32:35;13.10;99.90
16154;DHT22;8182;55.648;13.208;2023-06-14T00:35:08;13.10;99.90
16154;DHT22;8182;55.648;13.208;2023-06-14T00:37:36;13.00;99.90
16154;DHT22;8182;55.648;13.208;2023-06-14T00:40:04;13.00;99.90
16154;DHT22;8182;55.648;13.208;2023-06-14T00:42:32;12.90;99.90
16154;DHT22;8182;55.648;13.208;2023-06-14T00:45:07;12.80;99.90
16154;DHT22;8182;55.648;13.208;2023-06-14T00:47:38;12.80;99.90
16154;DHT22;8182;55.648;13.208;2023-06-14T00:50:07;12.70;99.90
16154;DHT22;8182;55.648;13.208;2023-06-14T00:52:36;12.70;99.90
16154;DHT22;8182;55.648;13.208;2023-06-14T00:55:05;12.70;99.90
16154;DHT22;8182;55.648;13.208;2023-06-14T00:57:41;12.80;99.90
16154;DHT22;8182;55.648;13.208;2023-06-14T01:00:13;12.80;99.90
16154;DHT22;8182;55.648;13.208;2023-06-14T01:02:41;12.80;99.90
16154;DHT22;8182;55.648;13.208;2023-06-14T01:05:09;12.90;99.90
16154;DHT22;8182;55.648;13.208;2023-06-14T01:07:45;12.80;99.90
16154;DHT22;8182;55.648;13.208;2023-06-14T01:10:32;12.80;99.90
16154;DHT22;8182;55.648;13.208;2023-06-14T01:13:18;12.70;99.90
16154;DHT22;8182;55.648;13.208;2023-06-14T01:15:53;12.70;99.90
16154;DHT22;8182;55.648;13.208;2023-06-14T01:18:25;12.70;99.90
16154;DHT22;8182;55.648;13.208;2023-06-14T01:20:55;12.70;99.90
16154;DHT22;8182;55.648;13.208;2023-06-14T01:23:28;12.70;99.90
16154;DHT22;8182;55.648;13.208;2023-06-14T01:26:01;12.70;99.90
16154;DHT22;8182;55.648;13.208;2023-06-14T01:28:32;12.60;99.90
16154;DHT22;8182;55.648;13.208;2023-06-14T01:31:02;12.60;99.90
16154;DHT22;8182;55.648;13.208;2023-06-14T01:33:32;12.60;99.90
16154;DHT22;8182;55.648;13.208;2023-06-14T01:36:02;12.70;99.90
16154;DHT22;8182;55.648;13.208;2023-06-14T01:38:31;12.70;99.90
16154;DHT22;8182;55.648;13.208;2023-06-14T01:41:04;12.70;99.90
16154;DHT22;8182;55.648;13.208;2023-06-14T01:43:48;12.70;99.90
16154;DHT22;8182;55.648;13.208;2023-06-14T01:46:16;12.70;99.90
16154;DHT22;8182;55.648;13.208;2023-06-14T01:48:44;12.70;99.90
16154;DHT22;8182;55.648;13.208;2023-06-14T01:51:15;12.70;99.90
16154;DHT22;8182;55.648;13.208;2023-06-14T01:53:46;12.70;99.90
16154;DHT22;8182;55.648;13.208;2023-06-14T01:56:14;12.70;99.90
16154;DHT22;8182;55.648;13.208;2023-06-14T01:58:42;12.70;99.90
16154;DHT22;8182;55.648;13.208;2023-06-14T02:01:19;12.60;99.90
16154;DHT22;8182;55.648;13.208;2023-06-14T02:03:53;12.50;99.90
16154;DHT22;8182;55.648;13.208;2023-06-14T02:06:26;12.50;99.90
16154;DHT22;8182;55.648;13.208;2023-06-14T02:08:56;12.50;99.90
16154;DHT22;8182;55.648;13.208;2023-06-14T02:11:32;12.50;99.90
16154;DHT22;8182;55.648;13.208;2023-06-14T02:14:06;12.50;99.90
16154;DHT22;8182;55.648;13.208;2023-06-14T02:16:37;12.50;99.90
16154;DHT22;8182;55.648;13.208;2023-06-14T02:19:14;12.50;99.90
16154;DHT22;8182;55.648;13.208;2023-06-14T02:21:42;12.50;99.90
16154;DHT22;8182;55.648;13.208;2023-06-14T02:24:12;12.40;99.90
16154;DHT22;8182;55.648;13.208;2023-06-14T02:26:39;12.30;99.90
16154;DHT22;8182;55.648;13.208;2023-06-14T02:29:08;12.20;99.90
16154;DHT22;8182;55.648;13.208;2023-06-14T02:31:38;12.20;99.90
16154;DHT22;8182;55.648;13.208;2023-06-14T02:34:06;12.10;99.90
16154;DHT22;8182;55.648;13.208;2023-06-14T02:36:38;12.10;99.90
16154;DHT22;8182;55.648;13.208;2023-06-14T02:39:13;12.20;99.90
16154;DHT22;8182;55.648;13.208;2023-06-14T02:41:40;12.10;99.90
16154;DHT22;8182;55.648;13.208;2023-06-14T02:44:07;12.10;99.90
16154;DHT22;8182;55.648;13.208;2023-06-14T02:46:38;12.20;99.90
16154;DHT22;8182;55.648;13.208;2023-06-14T02:49:07;12.20;99.90
16154;DHT22;8182;55.648;13.208;2023-06-14T02:51:37;12.20;99.90
16154;DHT22;8182;55.648;13.208;2023-06-14T02:54:04;12.20;99.90
16154;DHT22;8182;55.648;13.208;2023-06-14T02:56:34;12.20;99.90
16154;DHT22;8182;55.648;13.208;2023-06-14T02:59:07;12.20;99.90
16154;DHT22;8182;55.648;13.208;2023-06-14T03:01:45;12.20;99.90
16154;DHT22;8182;55.648;13.208;2023-06-14T03:04:33;12.20;99.90
16154;DHT22;8182;55.648;13.208;2023-06-14T03:07:04;12.20;99.90
16154;DHT22;8182;55.648;13.208;2023-06-14T03:09:35;12.20;99.90
16154;DHT22;8182;55.648;13.208;2023-06-14T03:12:08;12.30;99.90
16154;DHT22;8182;55.648;13.208;2023-06-14T03:14:37;12.30;99.90
16154;DHT22;8182;55.648;13.208;2023-06-14T03:17:17;12.30;99.90
16154;DHT22;8182;55.648;13.208;2023-06-14T03:19:46;12.30;99.90
16154;DHT22;8182;55.648;13.208;2023-06-14T03:22:20;12.40;99.90
16154;DHT22;8182;55.648;13.208;2023-06-14T03:24:57;12.40;99.90
16154;DHT22;8182;55.648;13.208;2023-06-14T03:27:31;12.40;99.90
16154;DHT22;8182;55.648;13.208;2023-06-14T03:29:58;12.40;99.90
16154;DHT22;8182;55.648;13.208;2023-06-14T03:32:27;12.40;99.90
16154;DHT22;8182;55.648;13.208;2023-06-14T03:35:05;12.50;99.90
16154;DHT22;8182;55.648;13.208;2023-06-14T03:37:38;12.50;99.90
16154;DHT22;8182;55.648;13.208;2023-06-14T03:40:09;12.50;99.90
16154;DHT22;8182;55.648;13.208;2023-06-14T03:42:39;12.50;99.90
16154;DHT22;8182;55.648;13.208;2023-06-14T03:45:24;12.50;99.90
16154;DHT22;8182;55.648;13.208;2023-06-14T03:48:08;12.50;99.90
16154;DHT22;8182;55.648;13.208;2023-06-14T03:50:39;12.60;99.90
16154;DHT22;8182;55.648;13.208;2023-06-14T03:53:08;12.50;99.90
16154;DHT22;8182;55.648;13.208;2023-06-14T03:55:37;12.60;99.90
16154;DHT22;8182;55.648;13.208;2023-06-14T03:58:06;12.70;99.90
16154;DHT22;8182;55.648;13.208;2023-06-14T04:00:33;12.70;99.90
16154;DHT22;8182;55.648;13.208;2023-06-14T04:03:11;12.70;99.90
16154;DHT22;8182;55.648;13.208;2023-06-14T04:05:39;12.80;99.90
16154;DHT22;8182;55.648;13.208;2023-06-14T04:08:11;12.80;99.90
16154;DHT22;8182;55.648;13.208;2023-06-14T04:10:56;12.90;99.90
16154;DHT22;8182;55.648;13.208;2023-06-14T04:13:31;12.80;99.90
16154;DHT22;8182;55.648;13.208;2023-06-14T04:16:00;12.90;99.90
16154;DHT22;8182;55.648;13.208;2023-06-14T04:18:28;12.90;99.90
16154;DHT22;8182;55.648;13.208;2023-06-14T04:21:02;13.00;99.90
16154;DHT22;8182;55.648;13.208;2023-06-14T04:23:30;12.90;99.90
16154;DHT22;8182;55.648;13.208;2023-06-14T04:25:59;13.10;99.90
16154;DHT22;8182;55.648;13.208;2023-06-14T04:28:47;13.10;99.90
16154;DHT22;8182;55.648;13.208;2023-06-14T04:31:15;13.20;99.90
16154;DHT22;8182;55.648;13.208;2023-06-14T04:33:49;13.30;99.90
16154;DHT22;8182;55.648;13.208;2023-06-14T04:36:17;13.50;99.90
16154;DHT22;8182;55.648;13.208;2023-06-14T04:38:45;13.60;99.90
16154;DHT22;8182;55.648;13.208;2023-06-14T04:41:15;13.70;99.90
16154;DHT22;8182;55.648;13.208;2023-06-14T04:44:16;13.70;99.90
16154;DHT22;8182;55.648;13.208;2023-06-14T04:46:44;13.90;99.90
16154;DHT22;8182;55.648;13.208;2023-06-14T04:49:12;14.00;99.90
16154;DHT22;8182;55.648;13.208;2023-06-14T04:51:44;14.00;99.90
16154;DHT22;8182;55.648;13.208;2023-06-14T04:54:34;14.20;99.90
16154;DHT22;8182;55.648;13.208;2023-06-14T04:57:04;14.30;99.90
16154;DHT22;8182;55.648;13.208;2023-06-14T04:59:35;14.50;99.90
16154;DHT22;8182;55.648;13.208;2023-06-14T05:02:02;14.50;99.90
16154;DHT22;8182;55.648;13.208;2023-06-14T05:04:29;14.60;99.90
16154;DHT22;8182;55.648;13.208;2023-06-14T05:07:02;14.70;99.90
16154;DHT22;8182;55.648;13.208;2023-06-14T05:09:34;14.70;99.90
16154;DHT22;8182;55.648;13.208;2023-06-14T05:12:02;14.80;99.90
16154;DHT22;8182;55.648;13.208;2023-06-14T05:14:33;14.90;99.90
16154;DHT22;8182;55.648;13.208;2023-06-14T05:17:00;15.10;99.90
16154;DHT22;8182;55.648;13.208;2023-06-14T05:19:28;15.40;99.90
16154;DHT22;8182;55.648;13.208;2023-06-14T05:21:55;15.50;99.90
16154;DHT22;8182;55.648;13.208;2023-06-14T05:24:37;15.60;99.90
16154;DHT22;8182;55.648;13.208;2023-06-14T05:27:04;15.60;99.90
16154;DHT22;8182;55.648;13.208;2023-06-14T05:29:35;15.70;99.90
16154;DHT22;8182;55.648;13.208;2023-06-14T05:32:02;15.90;99.90
16154;DHT22;8182;55.648;13.208;2023-06-14T05:34:31;16.10;99.90
16154;DHT22;8182;55.648;13.208;2023-06-14T05:36:58;16.30;99.90
16154;DHT22;8182;55.648;13.208;2023-06-14T05:39:30;16.50;99.90
16154;DHT22;8182;55.648;13.208;2023-06-14T05:42:04;16.60;99.90
16154;DHT22;8182;55.648;13.208;2023-06-14T05:44:36;16.80;99.90
16154;DHT22;8182;55.648;13.208;2023-06-14T05:47:06;17.00;99.90
16154;DHT22;8182;55.648;13.208;2023-06-14T05:49:41;17.20;99.90
16154;DHT22;8182;55.648;13.208;2023-06-14T05:52:12;17.50;99.90
16154;DHT22;8182;55.648;13.208;2023-06-14T05:54:39;17.60;99.90
16154;DHT22;8182;55.648;13.208;2023-06-14T05:57:18;17.80;99.90
16154;DHT22;8182;55.648;13.208;2023-06-14T05:59:48;18.00;99.90
16154;DHT22;8182;55.648;13.208;2023-06-14T06:02:17;18.20;99.90
16154;DHT22;8182;55.648;13.208;2023-06-14T06:04:44;18.40;99.90
16154;DHT22;8182;55.648;13.208;2023-06-14T06:07:19;18.50;99.90
16154;DHT22;8182;55.648;13.208;2023-06-14T06:13:11;18.90;99.90
16154;DHT22;8182;55.648;13.208;2023-06-14T06:15:52;19.00;99.90
16154;DHT22;8182;55.648;13.208;2023-06-14T06:18:36;19.10;99.90
16154;DHT22;8182;55.648;13.208;2023-06-14T06:21:26;19.50;99.90
16154;DHT22;8182;55.648;13.208;2023-06-14T06:24:04;19.70;99.90
16154;DHT22;8182;55.648;13.208;2023-06-14T06:26:39;19.80;99.90
16154;DHT22;8182;55.648;13.208;2023-06-14T06:29:13;19.90;99.90
16154;DHT22;8182;55.648;13.208;2023-06-14T06:32:08;20.00;99.90
16154;DHT22;8182;55.648;13.208;2023-06-14T06:34:37;20.40;99.90
16154;DHT22;8182;55.648;13.208;2023-06-14T06:37:07;20.50;99.90
16154;DHT22;8182;55.648;13.208;2023-06-14T06:39:41;20.50;99.90
16154;DHT22;8182;55.648;13.208;2023-06-14T06:42:12;20.50;99.90
16154;DHT22;8182;55.648;13.208;2023-06-14T06:44:40;20.60;99.90
16154;DHT22;8182;55.648;13.208;2023-06-14T06:47:09;20.70;99.90
16154;DHT22;8182;55.648;13.208;2023-06-14T06:49:37;20.90;99.90
16154;DHT22;8182;55.648;13.208;2023-06-14T06:52:33;21.00;99.90
16154;DHT22;8182;55.648;13.208;2023-06-14T06:55:07;21.40;99.90
16154;DHT22;8182;55.648;13.208;2023-06-14T06:57:37;21.70;99.90
16154;DHT22;8182;55.648;13.208;2023-06-14T07:00:05;21.90;99.90
16154;DHT22;8182;55.648;13.208;2023-06-14T07:02:39;22.00;99.90
16154;DHT22;8182;55.648;13.208;2023-06-14T07:05:07;21.80;99.90
16154;DHT22;8182;55.648;13.208;2023-06-14T07:07:50;21.80;99.90
16154;DHT22;8182;55.648;13.208;2023-06-14T07:10:47;21.60;99.90
16154;DHT22;8182;55.648;13.208;2023-06-14T07:13:39;21.70;99.90
16154;DHT22;8182;55.648;13.208;2023-06-14T07:16:06;21.80;99.90
16154;DHT22;8182;55.648;13.208;2023-06-14T07:19:02;21.80;99.90
16154;DHT22;8182;55.648;13.208;2023-06-14T07:22:04;21.90;99.90
16154;DHT22;8182;55.648;13.208;2023-06-14T07:24:31;22.00;99.90
16154;DHT22;8182;55.648;13.208;2023-06-14T07:27:02;22.10;99.90
16154;DHT22;8182;55.648;13.208;2023-06-14T07:30:29;22.20;99.90
16154;DHT22;8182;55.648;13.208;2023-06-14T07:32:45;22.20;99.90
16154;DHT22;8182;55.648;13.208;2023-06-14T07:35:18;22.30;99.90
16154;DHT22;8182;55.648;13.208;2023-06-14T07:37:47;22.30;99.90
16154;DHT22;8182;55.648;13.208;2023-06-14T07:40:24;22.50;99.90
16154;DHT22;8182;55.648;13.208;2023-06-14T07:43:08;22.50;99.90
16154;DHT22;8182;55.648;13.208;2023-06-14T07:45:36;22.90;99.90
16154;DHT22;8182;55.648;13.208;2023-06-14T07:48:15;23.20;99.90
16154;DHT22;8182;55.648;13.208;2023-06-14T07:50:47;23.70;99.90
16154;DHT22;8182;55.648;13.208;2023-06-14T07:53:28;23.90;99.90
16154;DHT22;8182;55.648;13.208;2023-06-14T07:56:09;24.00;99.90
16154;DHT22;8182;55.648;13.208;2023-06-14T07:58:56;24.10;99.90
16154;DHT22;8182;55.648;13.208;2023-06-14T08:01:27;24.50;99.90
16154;DHT22;8182;55.648;13.208;2023-06-14T08:03:56;24.50;99.90
16154;DHT22;8182;55.648;13.208;2023-06-14T08:06:53;24.50;99.90
16154;DHT22;8182;55.648;13.208;2023-06-14T08:09:24;24.60;99.90
16154;DHT22;8182;55.648;13.208;2023-06-14T08:12:32;25.00;99.90
16154;DHT22;8182;55.648;13.208;2023-06-14T08:18:12;25.80;99.90
16154;DHT22;8182;55.648;13.208;2023-06-14T08:20:42;25.90;99.90
16154;DHT22;8182;55.648;13.208;2023-06-14T08:23:19;26.10;99.90
16154;DHT22;8182;55.648;13.208;2023-06-14T08:25:47;26.20;99.90
16154;DHT22;8182;55.648;13.208;2023-06-14T08:28:15;25.80;99.90
16154;DHT22;8182;55.648;13.208;2023-06-14T08:30:42;25.70;99.90
16154;DHT22;8182;55.648;13.208;2023-06-14T08:33:10;26.20;99.90
16154;DHT22;8182;55.648;13.208;2023-06-14T08:36:15;26.10;99.90
16154;DHT22;8182;55.648;13.208;2023-06-14T08:38:48;26.20;99.90
16154;DHT22;8182;55.648;13.208;2023-06-14T08:41:24;25.90;99.90
16154;DHT22;8182;55.648;13.208;2023-06-14T08:44:02;26.40;99.90
16154;DHT22;8182;55.648;13.208;2023-06-14T08:47:17;26.40;99.90
16154;DHT22;8182;55.648;13.208;2023-06-14T08:50:03;26.60;99.90
16154;DHT22;8182;55.648;13.208;2023-06-14T08:52:38;26.50;99.90
16154;DHT22;8182;55.648;13.208;2023-06-14T08:55:20;26.90;99.90
16154;DHT22;8182;55.648;13.208;2023-06-14T08:58:06;26.70;99.90
16154;DHT22;8182;55.648;13.208;2023-06-14T09:00:35;26.60;99.90
16154;DHT22;8182;55.648;13.208;2023-06-14T09:03:13;26.90;99.90
16154;DHT22;8182;55.648;13.208;2023-06-14T09:05:43;27.30;99.90
16154;DHT22;8182;55.648;13.208;2023-06-14T09:08:15;27.50;99.90
16154;DHT22;8182;55.648;13.208;2023-06-14T09:11:04;27.60;99.90
16154;DHT22;8182;55.648;13.208;2023-06-14T09:13:46;27.70;99.90
16154;DHT22;8182;55.648;13.208;2023-06-14T09:16:13;27.30;99.90
16154;DHT22;8182;55.648;13.208;2023-06-14T09:19:01;27.30;99.90
16154;DHT22;8182;55.648;13.208;2023-06-14T09:21:52;27.30;99.90
16154;DHT22;8182;55.648;13.208;2023-06-14T09:24:37;27.60;99.90
16154;DHT22;8182;55.648;13.208;2023-06-14T09:27:53;28.00;99.90
16154;DHT22;8182;55.648;13.208;2023-06-14T09:30:28;28.30;99.90
16154;DHT22;8182;55.648;13.208;2023-06-14T09:35:59;28.10;99.90
16154;DHT22;8182;55.648;13.208;2023-06-14T09:38:34;28.00;99.90
16154;DHT22;8182;55.648;13.208;2023-06-14T09:41:10;28.60;99.90
16154;DHT22;8182;55.648;13.208;2023-06-14T09:43:48;29.00;99.90
16154;DHT22;8182;55.648;13.208;2023-06-14T09:46:51;29.10;99.90
16154;DHT22;8182;55.648;13.208;2023-06-14T09:52:17;29.60;99.90
16154;DHT22;8182;55.648;13.208;2023-06-14T09:55:03;29.90;99.90
16154;DHT22;8182;55.648;13.208;2023-06-14T09:57:42;29.50;99.90
16154;DHT22;8182;55.648;13.208;2023-06-14T10:00:17;29.90;99.90
16154;DHT22;8182;55.648;13.208;2023-06-14T10:02:50;29.60;99.90
16154;DHT22;8182;55.648;13.208;2023-06-14T10:05:51;29.70;99.90
16154;DHT22;8182;55.648;13.208;2023-06-14T10:08:39;30.30;99.90
16154;DHT22;8182;55.648;13.208;2023-06-14T10:12:30;30.10;99.90
16154;DHT22;8182;55.648;13.208;2023-06-14T10:14:13;30.30;99.90
16154;DHT22;8182;55.648;13.208;2023-06-14T10:19:45;29.90;99.90
16154;DHT22;8182;55.648;13.208;2023-06-14T10:22:23;30.10;99.90
16154;DHT22;8182;55.648;13.208;2023-06-14T10:25:13;30.30;99.90
16154;DHT22;8182;55.648;13.208;2023-06-14T10:34:10;30.40;99.90
16154;DHT22;8182;55.648;13.208;2023-06-14T10:36:42;30.90;99.90
16154;DHT22;8182;55.648;13.208;2023-06-14T10:39:18;31.10;99.90
16154;DHT22;8182;55.648;13.208;2023-06-14T10:42:02;29.90;99.90
16154;DHT22;8182;55.648;13.208;2023-06-14T10:44:54;29.20;99.90
16154;DHT22;8182;55.648;13.208;2023-06-14T10:47:32;29.50;99.90
16154;DHT22;8182;55.648;13.208;2023-06-14T10:50:22;29.10;99.90
16154;DHT22;8182;55.648;13.208;2023-06-14T10:52:58;28.70;99.90
16154;DHT22;8182;55.648;13.208;2023-06-14T10:55:42;29.50;99.90
16154;DHT22;8182;55.648;13.208;2023-06-14T10:58:12;29.70;99.90
16154;DHT22;8182;55.648;13.208;2023-06-14T11:00:59;29.70;99.90
16154;DHT22;8182;55.648;13.208;2023-06-14T11:03:50;29.90;99.90
16154;DHT22;8182;55.648;13.208;2023-06-14T11:06:35;30.50;99.90
16154;DHT22;8182;55.648;13.208;2023-06-14T11:09:35;30.70;99.90
16154;DHT22;8182;55.648;13.208;2023-06-14T11:12:17;30.10;99.90
16154;DHT22;8182;55.648;13.208;2023-06-14T11:14:54;29.50;99.90
16154;DHT22;8182;55.648;13.208;2023-06-14T11:17:29;29.50;99.90
16154;DHT22;8182;55.648;13.208;2023-06-14T11:20:12;28.70;99.90
16154;DHT22;8182;55.648;13.208;2023-06-14T11:22:44;28.40;99.90
16154;DHT22;8182;55.648;13.208;2023-06-14T11:28:45;28.50;99.90
16154;DHT22;8182;55.648;13.208;2023-06-14T11:31:30;28.70;99.90
16154;DHT22;8182;55.648;13.208;2023-06-14T11:34:02;29.10;99.90
16154;DHT22;8182;55.648;13.208;2023-06-14T11:36:34;29.40;99.90
16154;DHT22;8182;55.648;13.208;2023-06-14T11:39:12;29.40;99.90
16154;DHT22;8182;55.648;13.208;2023-06-14T11:41:45;29.50;99.90
16154;DHT22;8182;55.648;13.208;2023-06-14T11:44:13;28.70;99.90
16154;DHT22;8182;55.648;13.208;2023-06-14T11:46:43;28.00;99.90
16154;DHT22;8182;55.648;13.208;2023-06-14T11:49:13;28.50;99.90
16154;DHT22;8182;55.648;13.208;2023-06-14T11:51:43;28.70;99.90
16154;DHT22;8182;55.648;13.208;2023-06-14T11:54:12;28.50;99.90
16154;DHT22;8182;55.648;13.208;2023-06-14T11:56:39;28.40;99.90
16154;DHT22;8182;55.648;13.208;2023-06-14T11:59:13;28.10;99.90
16154;DHT22;8182;55.648;13.208;2023-06-14T12:01:52;28.50;99.90
16154;DHT22;8182;55.648;13.208;2023-06-14T12:04:29;28.70;99.90
16154;DHT22;8182;55.648;13.208;2023-06-14T12:06:57;28.70;99.90
16154;DHT22;8182;55.648;13.208;2023-06-14T12:09:26;28.40;99.90
16154;DHT22;8182;55.648;13.208;2023-06-14T12:14:44;28.50;99.90
16154;DHT22;8182;55.648;13.208;2023-06-14T12:17:13;27.60;99.90
16154;DHT22;8182;55.648;13.208;2023-06-14T12:19:43;27.40;99.90
16154;DHT22;8182;55.648;13.208;2023-06-14T12:22:11;27.20;99.90
16154;DHT22;8182;55.648;13.208;2023-06-14T12:24:47;27.20;99.90
16154;DHT22;8182;55.648;13.208;2023-06-14T12:27:28;27.10;99.90
16154;DHT22;8182;55.648;13.208;2023-06-14T12:30:00;26.80;99.90
16154;DHT22;8182;55.648;13.208;2023-06-14T12:32:29;26.80;99.90
16154;DHT22;8182;55.648;13.208;2023-06-14T12:35:08;27.20;99.90
16154;DHT22;8182;55.648;13.208;2023-06-14T12:37:47;27.20;99.90
16154;DHT22;8182;55.648;13.208;2023-06-14T12:40:38;27.40;99.90
16154;DHT22;8182;55.648;13.208;2023-06-14T12:43:09;27.30;99.90
16154;DHT22;8182;55.648;13.208;2023-06-14T12:45:40;27.20;99.90
16154;DHT22;8182;55.648;13.208;2023-06-14T12:48:19;27.00;99.90
16154;DHT22;8182;55.648;13.208;2023-06-14T12:51:01;26.90;99.90
16154;DHT22;8182;55.648;13.208;2023-06-14T12:53:28;26.70;99.90
16154;DHT22;8182;55.648;13.208;2023-06-14T12:56:24;26.60;99.90
16154;DHT22;8182;55.648;13.208;2023-06-14T12:58:52;26.70;99.90
16154;DHT22;8182;55.648;13.208;2023-06-14T13:01:29;26.70;99.90
16154;DHT22;8182;55.648;13.208;2023-06-14T13:04:12;26.60;99.90
16154;DHT22;8182;55.648;13.208;2023-06-14T13:06:39;26.40;99.90
16154;DHT22;8182;55.648;13.208;2023-06-14T13:09:08;26.50;99.90
16154;DHT22;8182;55.648;13.208;2023-06-14T13:11:48;26.70;99.90
16154;DHT22;8182;55.648;13.208;2023-06-14T13:14:19;27.00;99.90
16154;DHT22;8182;55.648;13.208;2023-06-14T13:16:46;27.10;99.90
16154;DHT22;8182;55.648;13.208;2023-06-14T13:19:13;27.00;99.90
16154;DHT22;8182;55.648;13.208;2023-06-14T13:21:40;27.10;99.90
16154;DHT22;8182;55.648;13.208;2023-06-14T13:24:37;27.30;99.90
16154;DHT22;8182;55.648;13.208;2023-06-14T13:27:13;27.40;99.90
16154;DHT22;8182;55.648;13.208;2023-06-14T13:29:40;27.30;99.90
16154;DHT22;8182;55.648;13.208;2023-06-14T13:32:13;27.30;99.90
16154;DHT22;8182;55.648;13.208;2023-06-14T13:34:53;27.20;99.90
16154;DHT22;8182;55.648;13.208;2023-06-14T13:37:46;27.00;99.90
16154;DHT22;8182;55.648;13.208;2023-06-14T13:40:23;26.80;99.90
16154;DHT22;8182;55.648;13.208;2023-06-14T13:43:00;26.90;99.90
16154;DHT22;8182;55.648;13.208;2023-06-14T13:45:28;26.80;99.90
16154;DHT22;8182;55.648;13.208;2023-06-14T13:47:55;26.90;99.90
16154;DHT22;8182;55.648;13.208;2023-06-14T13:50:25;26.30;99.90
16154;DHT22;8182;55.648;13.208;2023-06-14T13:52:53;26.30;99.90
16154;DHT22;8182;55.648;13.208;2023-06-14T13:55:20;26.10;99.90
16154;DHT22;8182;55.648;13.208;2023-06-14T13:57:48;26.00;99.90
16154;DHT22;8182;55.648;13.208;2023-06-14T14:00:18;26.20;99.90
16154;DHT22;8182;55.648;13.208;2023-06-14T14:02:45;26.50;99.90
16154;DHT22;8182;55.648;13.208;2023-06-14T14:05:12;26.60;99.90
16154;DHT22;8182;55.648;13.208;2023-06-14T14:07:39;26.70;99.90
16154;DHT22;8182;55.648;13.208;2023-06-14T14:10:07;26.60;99.90
16154;DHT22;8182;55.648;13.208;2023-06-14T14:12:34;26.40;99.90
16154;DHT22;8182;55.648;13.208;2023-06-14T14:15:02;26.40;99.90
16154;DHT22;8182;55.648;13.208;2023-06-14T14:17:43;26.60;99.90
16154;DHT22;8182;55.648;13.208;2023-06-14T14:20:11;26.60;99.90
16154;DHT22;8182;55.648;13.208;2023-06-14T14:22:41;26.60;99.90
16154;DHT22;8182;55.648;13.208;2023-06-14T14:25:08;26.70;99.90
16154;DHT22;8182;55.648;13.208;2023-06-14T14:27:36;26.50;99.90
16154;DHT22;8182;55.648;13.208;2023-06-14T14:30:03;26.20;99.90
16154;DHT22;8182;55.648;13.208;2023-06-14T14:32:32;26.20;99.90
16154;DHT22;8182;55.648;13.208;2023-06-14T14:34:59;26.20;99.90
16154;DHT22;8182;55.648;13.208;2023-06-14T14:37:27;26.30;99.90
16154;DHT22;8182;55.648;13.208;2023-06-14T14:39:57;26.40;99.90
16154;DHT22;8182;55.648;13.208;2023-06-14T14:42:24;26.40;99.90
16154;DHT22;8182;55.648;13.208;2023-06-14T14:44:52;26.50;99.90
16154;DHT22;8182;55.648;13.208;2023-06-14T14:47:19;26.50;99.90
16154;DHT22;8182;55.648;13.208;2023-06-14T14:49:47;26.50;99.90
16154;DHT22;8182;55.648;13.208;2023-06-14T14:52:14;26.50;99.90
16154;DHT22;8182;55.648;13.208;2023-06-14T14:54:48;26.50;99.90
16154;DHT22;8182;55.648;13.208;2023-06-14T14:57:15;26.30;99.90
16154;DHT22;8182;55.648;13.208;2023-06-14T14:59:42;26.30;99.90
16154;DHT22;8182;55.648;13.208;2023-06-14T15:02:09;26.20;99.90
16154;DHT22;8182;55.648;13.208;2023-06-14T15:04:36;26.10;99.90
16154;DHT22;8182;55.648;13.208;2023-06-14T15:07:05;26.10;99.90
16154;DHT22;8182;55.648;13.208;2023-06-14T15:09:32;26.10;99.90
16154;DHT22;8182;55.648;13.208;2023-06-14T15:11:59;26.10;99.90
16154;DHT22;8182;55.648;13.208;2023-06-14T15:14:29;26.10;99.90
16154;DHT22;8182;55.648;13.208;2023-06-14T15:16:57;26.10;99.90
16154;DHT22;8182;55.648;13.208;2023-06-14T15:19:28;26.20;99.90
16154;DHT22;8182;55.648;13.208;2023-06-14T15:22:06;26.20;99.90
16154;DHT22;8182;55.648;13.208;2023-06-14T15:24:33;26.20;99.90
16154;DHT22;8182;55.648;13.208;2023-06-14T15:27:01;26.20;99.90
16154;DHT22;8182;55.648;13.208;2023-06-14T15:29:30;26.20;99.90
16154;DHT22;8182;55.648;13.208;2023-06-14T15:31:58;26.20;99.90
16154;DHT22;8182;55.648;13.208;2023-06-14T15:34:25;26.10;99.90
16154;DHT22;8182;55.648;13.208;2023-06-14T15:36:53;26.10;99.90
16154;DHT22;8182;55.648;13.208;2023-06-14T15:39:24;26.00;99.90
16154;DHT22;8182;55.648;13.208;2023-06-14T15:41:53;25.80;99.90
16154;DHT22;8182;55.648;13.208;2023-06-14T15:44:19;25.70;99.90
16154;DHT22;8182;55.648;13.208;2023-06-14T15:46:46;25.80;99.90
16154;DHT22;8182;55.648;13.208;2023-06-14T15:49:13;25.70;99.90
16154;DHT22;8182;55.648;13.208;2023-06-14T15:51:41;25.70;99.90
16154;DHT22;8182;55.648;13.208;2023-06-14T15:54:08;25.60;99.90
16154;DHT22;8182;55.648;13.208;2023-06-14T15:56:36;25.60;99.90
16154;DHT22;8182;55.648;13.208;2023-06-14T15:59:03;25.50;99.90
16154;DHT22;8182;55.648;13.208;2023-06-14T16:01:30;25.50;99.90
16154;DHT22;8182;55.648;13.208;2023-06-14T16:03:57;25.50;99.90
16154;DHT22;8182;55.648;13.208;2023-06-14T16:06:25;25.50;99.90
16154;DHT22;8182;55.648;13.208;2023-06-14T16:08:58;25.50;99.90
16154;DHT22;8182;55.648;13.208;2023-06-14T16:11:29;25.40;99.90
16154;DHT22;8182;55.648;13.208;2023-06-14T16:13:58;25.40;99.90
16154;DHT22;8182;55.648;13.208;2023-06-14T16:16:25;25.40;99.90
16154;DHT22;8182;55.648;13.208;2023-06-14T16:18:53;25.40;99.90
16154;DHT22;8182;55.648;13.208;2023-06-14T16:21:24;25.40;99.90
16154;DHT22;8182;55.648;13.208;2023-06-14T16:23:54;25.30;99.90
16154;DHT22;8182;55.648;13.208;2023-06-14T16:26:21;25.30;99.90
16154;DHT22;8182;55.648;13.208;2023-06-14T16:28:49;25.30;99.90
16154;DHT22;8182;55.648;13.208;2023-06-14T16:31:17;25.30;99.90
16154;DHT22;8182;55.648;13.208;2023-06-14T16:33:44;25.30;99.90
16154;DHT22;8182;55.648;13.208;2023-06-14T16:36:12;25.30;99.90
16154;DHT22;8182;55.648;13.208;2023-06-14T16:38:39;25.20;99.90
16154;DHT22;8182;55.648;13.208;2023-06-14T16:41:06;25.20;99.90